Flight Track Log - Related Links

Times and Time Zones

All times are in EDT time to prevent confusion due to time zone crossing. See the UAL4193 flight status page for this flight to view local times or setup timezone preferences in your user account.

Time Position Orientation Groundspeed Altitude Reporting Facility
EDT Latitude Longitude Course Direction KTS MPH feet Rate Location/Type
Thu 07:45:00 PM 44.4742 -88.3036 300° West 243 280 7,300  Level Minneapolis Center
Thu 07:46:02 PM 44.5072 -88.3875 299° West 247 284 10,100 2,274 Climbing Minneapolis Center
Thu 07:47:04 PM 44.5486 -88.5011 297° West 279 321 12,000 1,694 Climbing Minneapolis Center
Thu 07:48:00 PM 44.5630 -88.7273 287° West  Level FlightAware Approximate
Thu 07:48:06 PM 44.5894 -88.6081 298° West 305 351 13,600  Level Minneapolis Center
Thu 07:49:00 PM 44.5886 -88.8465 287° West  Level FlightAware Approximate
Thu 07:49:08 PM 44.6175 -88.7300 288° West 326 375 15,200  Level Minneapolis Center
Thu 07:50:10 PM 44.6322 -88.8564 279° West 330 380 16,600 1,258 Climbing Minneapolis Center
Thu 07:51:12 PM 44.6447 -88.9647 279° West 335 386 17,800 1,548 Climbing Minneapolis Center
Thu 07:52:14 PM 44.6639 -89.1372 279° West 336 387 19,800 1,597 Climbing Minneapolis Center
Thu 07:53:16 PM 44.6781 -89.2678 279° West 338 389 21,100 1,113 Climbing Minneapolis Center
Thu 07:54:18 PM 44.6931 -89.4014 279° West 345 397 22,100 968 Climbing Minneapolis Center
Thu 07:55:20 PM 44.7078 -89.5397 279° West 354 407 23,100 919 Climbing Minneapolis Center
Thu 07:56:22 PM 44.7228 -89.6789 279° West 359 413 24,000 435 Climbing Minneapolis Center
Thu 07:57:24 PM 44.7403 -89.8225 280° West 370 426 24,000  Level Minneapolis Center
Thu 07:58:26 PM 44.7639 -89.9956 281° West 383 441 24,000  Level Minneapolis Center
Thu 07:59:30 PM 44.7844 -90.1447 281° West 387 445 24,000  Level Minneapolis Center
Thu 08:00:32 PM 44.8028 -90.2928 280° West 386 444 24,000  Level Minneapolis Center
Thu 08:01:34 PM 44.8236 -90.4439 281° West 390 449 24,000  Level Minneapolis Center
Thu 08:02:36 PM 44.8444 -90.6106 280° West 389 448 24,000  Level Minneapolis Center
Thu 08:03:38 PM 44.8642 -90.7619 280° West 392 451 24,000  Level Minneapolis Center
Thu 08:04:40 PM 44.8858 -90.9303 280° West 395 455 24,000  Level Minneapolis Center
Thu 08:05:42 PM 44.9058 -91.0881 280° West 394 453 24,000  Level Minneapolis Center
Thu 08:06:44 PM 44.9242 -91.2453 279° West 390 449 24,000  Level Minneapolis Center
Thu 08:07:46 PM 44.9419 -91.3922 280° West 394 453 24,000 -629 Level Minneapolis Center
Thu 08:08:48 PM 44.9617 -91.5489 280° West 390 449 22,700 -1,742 Descending Minneapolis Center
Thu 08:09:50 PM 44.9803 -91.6914 281° West 378 435 20,400 -2,371 Descending Minneapolis Center
Thu 08:10:52 PM 44.9967 -91.8353 279° West 372 428 17,800 -2,371 Descending Minneapolis Center
Thu 08:11:54 PM 45.0133 -91.9683 280° West 349 402 15,500 -2,613 Descending Minneapolis Center
Thu 08:12:56 PM 45.0289 -92.1208 278° West 329 379 12,400 -2,177 Descending Minneapolis Center
Thu 08:13:58 PM 45.0447 -92.2467 280° West 327 376 11,000 -677 Descending Minneapolis Center
Thu 08:15:00 PM 45.0361 -92.3708 264° West 330 380 11,000  Level Minneapolis Center
Thu 08:16:02 PM 45.0169 -92.4967 258° West 331 381 11,000  Level Minneapolis Center
Thu 08:17:04 PM 44.9967 -92.6197 257° West 325 374 11,000  Level Minneapolis Center
Thu 08:18:06 PM 44.9769 -92.7458 258° West 330 380 11,000 -387 Level Minneapolis Center
Thu 08:19:08 PM 44.9567 -92.8708 257° West 259 298 10,200 -1,210 Descending Minneapolis Center
Thu 08:20:10 PM 44.9408 -92.9656 257° West 249 287 8,500 -1,065 Descending Minneapolis Center
Thu 08:21:12 PM 44.9272 -93.0511 257° West 230 265 8,000 -290 Descending Minneapolis Center
Thu 08:22:14 PM 44.9597 -93.1261 302° West 229 264 7,900 -774 Descending Minneapolis Center
Thu 08:23:16 PM 44.9956 -93.2006 304° West 232 267 6,400 -1,588 Descending Minneapolis Center
Thu 08:24:30 PM 45.0386 -93.2869 305° West 226 260 4,300 -1,059 Descending Minneapolis Center
Thu 08:25:32 PM 45.0086 -93.3603 240° Southwest 203 234 4,000 -629 Descending Minneapolis Center
Thu 08:26:34 PM 44.9600 -93.3367 161° South 185 213 3,000 -823 Descending Minneapolis Center
Thu 08:27:36 PM 44.9311 -93.3069 144° Southeast 137 158 2,300 -677 Descending Minneapolis Center
Thu 08:28:38 PM 44.9103 -93.2600 122° Southeast 141 162 1,600 -677 Descending Minneapolis Center
Thu 08:30:00 PM 44.8820 -93.2218 205° Southwest  Level Estimated
Thu 08:37:00 PM 44.8820 -93.2218 205° Southwest  Level Estimated

Login

Don't have an account? Register now (free) for customized features, flight alerts, and more!